CST,Max TemperatureF,Mean TemperatureF,Min TemperatureF,Max Dew PointF,MeanDew PointF,Min DewpointF,Max Humidity, Mean Humidity, Min Humidity, Max Sea Level PressureIn, Mean Sea Level PressureIn, Min Sea Level PressureIn, Max VisibilityMiles, Mean VisibilityMiles, Min VisibilityMiles, Max Wind SpeedMPH, Mean Wind SpeedMPH, Max Gust SpeedMPH,PrecipitationIn, CloudCover, Events, WindDirDegrees
2013-1-1,29,17,6,18,9,2,89,72,55,30.10,30.04,30.01,10,10,10,21,10,24,0.00,1,,292
2013-1-2,31,24,17,20,16,12,90,73,54,30.22,30.11,30.05,10,9,3,22,16,31,0.00,7,Snow,313
2013-1-3,34,18,3,14,7,-2,86,61,36,30.25,30.19,30.13,10,10,10,25,12,31,0.00,1,,297
2013-1-4,44,28,11,21,11,3,71,55,26,30.16,30.07,29.99,10,10,10,13,8,,0.00,0,,279
2013-1-5,37,25,12,20,11,6,77,56,44,30.25,30.14,29.99,10,10,10,26,12,32,0.00,0,,307
2013-1-6,50,29,8,18,10,3,85,59,16,30.24,30.06,29.88,10,10,10,16,8,,0.00,0,,240
2013-1-7,47,34,21,16,11,6,70,42,20,29.98,29.89,29.79,10,10,10,21,8,26,0.00,0,,253
2013-1-8,47,35,23,22,19,10,67,48,33,30.19,29.91,29.76,10,10,10,38,15,55,0.00,1,,292
2013-1-9,54,38,23,26,20,16,74,54,23,30.26,30.15,30.01,10,10,10,22,12,25,0.00,0,,208
2013-1-10,51,38,25,38,28,18,96,73,48,30.00,29.69,29.43,10,10,10,29,13,33,0.00,0,,191
2013-1-11,30,17,5,28,14,-2,96,81,64,29.76,29.46,29.29,10,7,0,24,10,30,0.00,4,Fog-Snow,327
2013-1-12,11,2,-8,3,-3,-14,83,75,69,29.97,29.89,29.76,10,10,10,25,12,30,0.00,1,,317
2013-1-13,13,2,-10,4,-4,-15,84,77,62,30.08,30.01,29.95,10,10,7,10,7,,0.00,3,,295
2013-1-14,15,3,-9,6,-6,-15,83,73,48,30.13,30.07,30.02,10,10,5,10,6,,0.00,2,Snow,261
2013-1-15,29,10,-7,20,6,-14,83,69,63,30.04,30.01,29.97,10,10,7,28,14,34,0.00,5,,281
2013-1-16,43,35,27,24,19,14,69,59,41,30.31,30.15,30.02,10,10,10,29,22,37,0.00,1,,298
2013-1-17,49,33,18,21,15,12,78,52,26,30.42,30.33,30.17,10,10,10,21,13,26,0.00,0,,262
2013-1-18,56,38,20,17,11,8,70,36,15,30.16,30.06,29.98,10,10,10,32,16,44,0.00,0,,283
2013-1-19,54,40,27,14,9,3,56,29,13,30.20,30.13,29.99,10,10,10,28,17,32,0.00,0,,309
2013-1-20,40,28,16,19,14,9,87,56,31,30.27,30.19,30.10,10,10,10,23,9,30,0.00,2,,314
2013-1-21,52,32,12,22,12,9,89,55,19,30.21,30.09,30.02,10,10,10,22,10,30,0.00,0,,284
2013-1-22,55,42,28,10,6,1,41,26,12,30.11,30.05,29.99,10,10,10,26,15,33,0.00,0,,298
2013-1-23,58,40,22,19,6,-3,83,31,11,30.16,30.11,30.06,10,10,10,15,10,16,0.00,0,,278
2013-1-24,63,42,21,29,19,6,92,49,13,30.15,30.02,29.91,10,10,10,30,12,36,0.00,1,Rain,270
2013-1-25,55,40,26,30,26,22,88,62,33,30.16,30.10,30.05,10,10,10,15,9,21,0.00,0,,252
2013-1-26,57,40,23,30,25,20,88,60,31,30.05,29.92,29.76,10,10,10,12,5,16,0.00,1,,236
2013-1-27,58,46,33,40,32,24,97,72,27,29.76,29.71,29.67,10,9,2,20,7,29,0.02,4,Rain,276
2013-1-28,36,29,23,32,28,21,96,92,83,29.72,29.66,29.60,10,7,0,21,9,24,0.00,5,Fog-Snow,326
2013-1-29,28,22,15,25,14,8,92,71,54,29.87,29.72,29.65,10,10,2,22,11,30,0.00,4,Snow,323
2013-1-30,35,18,2,22,13,-2,83,71,53,29.89,29.80,29.73,10,10,10,24,13,32,0.00,4,,301
2013-1-31,29,26,22,22,19,17,88,79,68,30.11,30.01,29.83,10,10,7,16,9,20,0.00,8,Snow,325